Climatologie pour Saint-Brevin les Pins
Jour • Résumé pour juillet 25, 2017 Système :  Métrique    Anglais   Mixte
« - 1 jour
+ 1 jour »
Jour Semaine Mois Année Personnalisé
  Maximum : Minimum : Moyenne :
Température sous abri : -17.8 °C -10.2 °C -7.8 °C
Point de rosée : -17.8 °C -10.7 °C -9.1 °C
Humidité : Humidity % 74 % 86 %
Vitesse du vent : 0 km/h 0 km/h 11.7 km/h
Rafale : 0 km/h - -
Direction :- - WNW
Pression : 0 hPa 34405.1 hPa -
Précipitations : 0 mm    
Historical Graphs
 
 
Tableau de données pour juillet 25, 2017
Heure Tempé Pt rosée Pression Vent Vitesse Rafale Humidité Taux pluie (/hr) Soleil
-17.8 °C -17.8 °C 0 hPa Calm     Humidity % 0 mm SolarRadiationWatts/m^2 W/m2 Conditions
00:00 -8.4 °C -9.1 °C 34544 hPa WNW 7.7 km/h 18.2 km/h 93 % 0 mm 0 W/m2
00:10 -8.4 °C -9 °C 34533.8 hPa WNW 2.6 km/h 23.3 km/h 93 % 0 mm 0 W/m2
00:15 -8.4 °C -9.1 °C 34544 hPa NNW 2.6 km/h 23.3 km/h 93 % 0 mm 0 W/m2
00:20 -8.4 °C -9 °C 34544 hPa NNW 2.6 km/h 15.6 km/h 94 % 0 mm 0 W/m2
00:25 -8.5 °C -9.1 °C 34533.8 hPa NW 7.7 km/h 15.6 km/h 94 % 0 mm 0 W/m2
00:30 -8.6 °C -9.2 °C 34533.8 hPa NNW 7.7 km/h 15.6 km/h 94 % 0 mm 0 W/m2
00:35 -8.6 °C -9.1 °C 34533.8 hPa NW 2.6 km/h 20.8 km/h 94 % 0 mm 0 W/m2
00:40 -8.4 °C -8.9 °C 34533.8 hPa WNW 12.9 km/h 23.3 km/h 95 % 0 mm 0 W/m2
00:45 -8.4 °C -9 °C 34533.8 hPa WNW 7.7 km/h 23.3 km/h 94 % 0 mm 0 W/m2
00:50 -8.4 °C -8.9 °C 34533.8 hPa NW 7.7 km/h 18.2 km/h 95 % 0 mm 0 W/m2
00:55 -8.4 °C -8.8 °C 34533.8 hPa North 10.3 km/h 20.8 km/h 95 % 0 mm 0 W/m2
01:00 -8.4 °C -8.8 °C 34533.8 hPa NW 7.7 km/h 20.8 km/h 95 % 0 mm 0 W/m2
01:05 -8.4 °C -8.8 °C 34533.8 hPa WNW 10.3 km/h 18.2 km/h 95 % 0 mm 0 W/m2
01:10 -8.4 °C -8.9 °C 34533.8 hPa WNW 5.1 km/h 18.2 km/h 95 % 0 mm 0 W/m2
01:15 -8.4 °C -8.9 °C 34533.8 hPa West 5.1 km/h 18.2 km/h 95 % 0 mm 0 W/m2
01:20 -8.4 °C -8.9 °C 34533.8 hPa WNW 10.3 km/h 18.2 km/h 95 % 0 mm 0 W/m2
01:30 -8.4 °C -8.9 °C 34533.8 hPa WNW 5.1 km/h 18.2 km/h 95 % 0 mm 0 W/m2
01:35 -8.5 °C -8.9 °C 34533.8 hPa Calm   18.2 km/h 95 % 0 mm 0 W/m2
01:40 -8.7 °C -9.1 °C 34533.8 hPa NNW 12.9 km/h 15.6 km/h 95 % 0 mm 0 W/m2
01:45 -8.7 °C -9 °C 34533.8 hPa WNW 5.1 km/h 15.6 km/h 96 % 0 mm 0 W/m2
01:50 -8.7 °C -9.1 °C 34533.8 hPa North 7.7 km/h 15.6 km/h 95 % 0 mm 0 W/m2
01:55 -8.7 °C -9.2 °C 34533.8 hPa NW 7.7 km/h 15.6 km/h 95 % 0 mm 0 W/m2
02:00 -8.7 °C -9.1 °C 34533.8 hPa NNW 5.1 km/h 18.2 km/h 96 % 0 mm 0 W/m2
02:05 -8.8 °C -9.3 °C 34533.8 hPa NW 2.6 km/h 18.2 km/h 95 % 0 mm 0 W/m2
02:10 -8.8 °C -9.2 °C 34533.8 hPa WNW 7.7 km/h 12.9 km/h 96 % 0 mm 0 W/m2
02:15 -8.9 °C -9.3 °C 34533.8 hPa North 12.9 km/h 12.9 km/h 95 % 0 mm 0 W/m2
02:20 -8.9 °C -9.2 °C 34533.8 hPa NNW 5.1 km/h 12.9 km/h 96 % 0 mm 0 W/m2
02:25 -8.9 °C -9.2 °C 34533.8 hPa NW 5.1 km/h 12.9 km/h 96 % 0 mm 0 W/m2
02:30 -8.9 °C -9.2 °C 34533.8 hPa NW 7.7 km/h 15.6 km/h 96 % 0 mm 0 W/m2
02:35 -8.9 °C -9.3 °C 34533.8 hPa NW 12.9 km/h 15.6 km/h 96 % 0 mm 0 W/m2
02:40 -8.9 °C -9.3 °C 34533.8 hPa North 7.7 km/h 25.9 km/h 96 % 0 mm 0 W/m2
02:45 -9 °C -9.3 °C 34533.8 hPa North 7.7 km/h 25.9 km/h 96 % 0 mm 0 W/m2
02:50 -9 °C -9.3 °C 34533.8 hPa NNW 10.3 km/h 20.8 km/h 96 % 0 mm 0 W/m2
02:55 -9 °C -9.4 °C 34533.8 hPa NNW 7.7 km/h 23.3 km/h 96 % 0 mm 0 W/m2
03:00 -9.1 °C -9.4 °C 34533.8 hPa NNW 15.6 km/h 25.9 km/h 96 % 0 mm 0 W/m2
03:05 -9.2 °C -9.6 °C 34533.8 hPa NW 15.6 km/h 25.9 km/h 96 % 0 mm 0 W/m2
03:10 -9.3 °C -9.6 °C 34520.3 hPa NNW 10.3 km/h 23.3 km/h 96 % 0 mm 0 W/m2
03:15 -9.3 °C -9.7 °C 34520.3 hPa Calm   23.3 km/h 96 % 0 mm 0 W/m2
03:25 -9.5 °C -9.9 °C 34520.3 hPa Calm   23.3 km/h 95 % 0 mm 0 W/m2
03:30 -9.6 °C -9.9 °C 34520.3 hPa NNW 2.6 km/h 18.2 km/h 96 % 0 mm 0 W/m2
03:35 -9.6 °C -10.1 °C 34520.3 hPa NNW 12.9 km/h 20.8 km/h 95 % 0 mm 0 W/m2
03:40 -9.7 °C -10.1 °C 34520.3 hPa NNW 5.1 km/h 20.8 km/h 95 % 0 mm 0 W/m2
03:45 -9.7 °C -10.1 °C 34520.3 hPa NW 5.1 km/h 18.2 km/h 95 % 0 mm 0 W/m2
03:50 -9.8 °C -10.2 °C 34520.3 hPa WNW 5.1 km/h 18.2 km/h 95 % 0 mm 0 W/m2
03:55 -9.7 °C -10.1 °C 34520.3 hPa NNE 5.1 km/h 18.2 km/h 96 % 0 mm 0 W/m2
04:00 -9.7 °C -10.1 °C 34510.1 hPa NNW 7.7 km/h 15.6 km/h 95 % 0 mm 0 W/m2
04:05 -9.7 °C -10.1 °C 34510.1 hPa NW 7.7 km/h 18.2 km/h 95 % 0 mm 0 W/m2
04:10 -9.7 °C -10.1 °C 34510.1 hPa WNW 12.9 km/h 20.8 km/h 95 % 0 mm 0 W/m2
04:15 -9.7 °C -10.1 °C 34510.1 hPa Calm   20.8 km/h 95 % 0 mm 0 W/m2
04:20 -9.7 °C -10.2 °C 34510.1 hPa WNW 5.1 km/h 18.2 km/h 95 % 0 mm 0 W/m2
04:25 -9.7 °C -10.3 °C 34510.1 hPa NNW 12.9 km/h 18.2 km/h 94 % 0 mm 0 W/m2
04:30 -9.7 °C -10.1 °C 34510.1 hPa WNW 5.1 km/h 20.8 km/h 95 % 0 mm 0 W/m2
04:35 -9.6 °C -10.1 °C 34510.1 hPa West 7.7 km/h 20.8 km/h 95 % 0 mm 0 W/m2
04:40 -9.6 °C -10.1 °C 34510.1 hPa WNW 10.3 km/h 18.2 km/h 94 % 0 mm 0 W/m2
04:45 -9.6 °C -10.1 °C 34510.1 hPa NW 12.9 km/h 20.8 km/h 95 % 0 mm 0 W/m2
04:50 -9.6 °C -10.1 °C 34496.6 hPa NW 10.3 km/h 20.8 km/h 94 % 0 mm 0 W/m2
04:55 -9.6 °C -10.1 °C 34496.6 hPa WNW 5.1 km/h 20.8 km/h 94 % 0 mm 0 W/m2
05:00 -9.6 °C -10.1 °C 34496.6 hPa WNW 18.2 km/h 23.3 km/h 94 % 0 mm 0 W/m2
05:05 -9.6 °C -10.1 °C 34496.6 hPa WNW 2.6 km/h 23.3 km/h 94 % 0 mm 0 W/m2
05:10 -9.6 °C -10.1 °C 34510.1 hPa NW 12.9 km/h 23.3 km/h 94 % 0 mm 0 W/m2
05:15 -9.6 °C -10.1 °C 34510.1 hPa NW 12.9 km/h 20.8 km/h 94 % 0 mm 0 W/m2
05:20 -9.6 °C -10.1 °C 34510.1 hPa WNW 10.3 km/h 20.8 km/h 94 % 0 mm 0 W/m2
05:25 -9.6 °C -10.2 °C 34510.1 hPa WNW 12.9 km/h 18.2 km/h 93 % 0 mm 0 W/m2
05:30 -9.6 °C -10.2 °C 34510.1 hPa WNW 5.1 km/h 23.3 km/h 93 % 0 mm 0 W/m2
05:35 -9.6 °C -10.3 °C 34510.1 hPa West 5.1 km/h 23.3 km/h 93 % 0 mm 0 W/m2
05:40 -9.7 °C -10.3 °C 34510.1 hPa Calm   23.3 km/h 93 % 0 mm 0 W/m2
05:45 -9.8 °C -10.4 °C 34510.1 hPa NW 15.6 km/h 20.8 km/h 93 % 0 mm 0 W/m2
05:50 -9.8 °C -10.3 °C 34510.1 hPa NW 5.1 km/h 15.6 km/h 94 % 0 mm 0 W/m2
05:55 -9.8 °C -10.4 °C 34510.1 hPa NW 12.9 km/h 15.6 km/h 94 % 0 mm 0 W/m2
06:00 -9.9 °C -10.4 °C 34496.6 hPa NW 7.7 km/h 15.6 km/h 94 % 0 mm 0 W/m2
06:05 -9.9 °C -10.4 °C 34510.1 hPa WNW 7.7 km/h 12.9 km/h 94 % 0 mm 0 W/m2
06:10 -9.9 °C -10.5 °C 34496.6 hPa NW 5.1 km/h 12.9 km/h 94 % 0 mm 0 W/m2
06:15 -10.1 °C -10.6 °C 34496.6 hPa Calm   12.9 km/h 94 % 0 mm 0 W/m2
06:20 -10 °C -10.6 °C 34496.6 hPa WNW 2.6 km/h 12.9 km/h 94 % 0 mm 0 W/m2
06:25 -10.1 °C -10.5 °C 34496.6 hPa WNW 10.3 km/h 12.9 km/h 95 % 0 mm 0 W/m2
06:30 -10.1 °C -10.6 °C 34496.6 hPa WNW 5.1 km/h 10.3 km/h 95 % 0 mm 0 W/m2
06:35 -10.1 °C -10.6 °C 34496.6 hPa Calm   10.3 km/h 95 % 0 mm 0 W/m2
06:40 -10.2 °C -10.7 °C 34496.6 hPa WNW 5.1 km/h 15.6 km/h 95 % 0 mm 0 W/m2
06:45 -10.2 °C -10.7 °C 34496.6 hPa Calm   15.6 km/h 95 % 0 mm 5 W/m2
06:50 -10.2 °C -10.7 °C 34496.6 hPa Calm   10.3 km/h 95 % 0 mm 7 W/m2
06:55 -10.2 °C -10.6 °C 34496.6 hPa Calm   12.9 km/h 96 % 0 mm 9 W/m2
07:00 -10.2 °C -10.6 °C 34496.6 hPa Calm   12.9 km/h 96 % 0 mm 14 W/m2
07:05 -10.2 °C -10.6 °C 34496.6 hPa WNW 5.1 km/h 7.7 km/h 96 % 0 mm 18 W/m2
07:10 -10.1 °C -10.4 °C 34496.6 hPa Calm   7.7 km/h 96 % 0 mm 21 W/m2
07:15 -10 °C -10.3 °C 34496.6 hPa WNW 2.6 km/h 10.3 km/h 96 % 0 mm 28 W/m2
07:25 -9.8 °C -10.1 °C 34496.6 hPa NNW 5.1 km/h 12.9 km/h 96 % 0 mm 39 W/m2
07:30 -9.8 °C -10.1 °C 34496.6 hPa Calm   12.9 km/h 96 % 0 mm 44 W/m2
07:35 -9.7 °C -10.1 °C 34510.1 hPa WNW 5.1 km/h 10.3 km/h 96 % 0 mm 53 W/m2
07:40 -9.6 °C -10 °C 34510.1 hPa Calm   10.3 km/h 96 % 0 mm 70 W/m2
07:45 -9.6 °C -9.9 °C 34496.6 hPa West 2.6 km/h 18.2 km/h 96 % 0 mm 62 W/m2
07:50 -9.4 °C -9.8 °C 34496.6 hPa WNW 5.1 km/h 18.2 km/h 96 % 0 mm 93 W/m2
07:55 -9.2 °C -9.6 °C 34510.1 hPa WNW 7.7 km/h 12.9 km/h 96 % 0 mm 93 W/m2
08:00 -9.1 °C -9.6 °C 34510.1 hPa WNW 5.1 km/h 12.9 km/h 95 % 0 mm 100 W/m2
08:05 -8.9 °C -9.4 °C 34496.6 hPa Calm   10.3 km/h 94 % 0 mm 86 W/m2
08:10 -8.8 °C -9.4 °C 34510.1 hPa WNW 7.7 km/h 10.3 km/h 94 % 0 mm 63 W/m2
08:15 -8.9 °C -9.5 °C 34510.1 hPa NW 7.7 km/h 15.6 km/h 93 % 0 mm 62 W/m2
08:20 -8.8 °C -9.5 °C 34510.1 hPa Calm   15.6 km/h 93 % 0 mm 72 W/m2
08:25 -8.7 °C -9.4 °C 34496.6 hPa WNW 2.6 km/h 7.7 km/h 93 % 0 mm 81 W/m2
08:30 -8.8 °C -9.5 °C 34510.1 hPa Calm   12.9 km/h 92 % 0 mm 91 W/m2
08:35 -8.7 °C -9.4 °C 34510.1 hPa WNW 5.1 km/h 12.9 km/h 92 % 0 mm 90 W/m2
08:40 -8.7 °C -9.4 °C 34510.1 hPa NW 7.7 km/h 15.6 km/h 92 % 0 mm 104 W/m2
08:45 -8.7 °C -9.4 °C 34510.1 hPa Calm   15.6 km/h 92 % 0 mm 118 W/m2
08:50 -8.6 °C -9.4 °C 34510.1 hPa WNW 10.3 km/h 18.2 km/h 91 % 0 mm 116 W/m2
08:55 -8.6 °C -9.4 °C 34510.1 hPa NNW 12.9 km/h 20.8 km/h 91 % 0 mm 142 W/m2
09:00 -8.5 °C -9.4 °C 34510.1 hPa NNW 5.1 km/h 20.8 km/h 90 % 0 mm 174 W/m2
09:05 -8.4 °C -9.3 °C 34510.1 hPa NNW 12.9 km/h 15.6 km/h 90 % 0 mm 186 W/m2
09:10 -8.3 °C -9.2 °C 34510.1 hPa West 2.6 km/h 15.6 km/h 90 % 0 mm 167 W/m2
09:15 -8.2 °C -9.1 °C 34510.1 hPa NW 2.6 km/h 15.6 km/h 90 % 0 mm 172 W/m2
09:20 -8.2 °C -9.2 °C 34510.1 hPa Calm   12.9 km/h 89 % 0 mm 211 W/m2
09:25 -8.1 °C -9.2 °C 34510.1 hPa NNE 2.6 km/h 12.9 km/h 88 % 0 mm 248 W/m2
09:30 -7.9 °C -9.1 °C 34510.1 hPa NNE 5.1 km/h 12.9 km/h 88 % 0 mm 181 W/m2
09:35 -7.9 °C -9.1 °C 34510.1 hPa NW 7.7 km/h 15.6 km/h 87 % 0 mm 285 W/m2
09:40 -7.7 °C -9 °C 34510.1 hPa WNW 5.1 km/h 15.6 km/h 86 % 0 mm 225 W/m2
09:45 -7.7 °C -9.2 °C 34510.1 hPa NNW 5.1 km/h 18.2 km/h 84 % 0 mm 155 W/m2
09:50 -7.7 °C -8.9 °C 34510.1 hPa NNW 7.7 km/h 18.2 km/h 87 % 0 mm 526 W/m2
09:55 -7.7 °C -9.2 °C 34510.1 hPa NW 7.7 km/h 20.8 km/h 84 % 0 mm 580 W/m2
10:00 -7.4 °C -9.1 °C 34510.1 hPa North 12.9 km/h 20.8 km/h 82 % 0 mm 399 W/m2
10:05 -7.4 °C -9.1 °C 34510.1 hPa WNW 2.6 km/h 20.8 km/h 82 % 0 mm 510 W/m2
10:10 -7 °C -8.5 °C 34510.1 hPa Calm   15.6 km/h 84 % 0 mm 631 W/m2
10:20 -7.1 °C -9.2 °C 34496.6 hPa West 10.3 km/h 20.8 km/h 79 % 0 mm 613 W/m2
10:25 -7.1 °C -9.1 °C 34496.6 hPa WNW 5.1 km/h 18.2 km/h 80 % 0 mm 258 W/m2
10:30 -7 °C -9 °C 34510.1 hPa WSW 2.6 km/h 18.2 km/h 80 % 0 mm 294 W/m2
10:35 -7.2 °C -9.1 °C 34496.6 hPa WNW 12.9 km/h 18.2 km/h 80 % 0 mm 232 W/m2
10:40 -7.1 °C -9.1 °C 34496.6 hPa NW 15.6 km/h 18.2 km/h 80 % 0 mm 664 W/m2
10:45 -6.6 °C -8.7 °C 34496.6 hPa WNW 5.1 km/h 23.3 km/h 79 % 0 mm 689 W/m2
10:50 -6.8 °C -9.1 °C 34496.6 hPa NNW 10.3 km/h 23.3 km/h 77 % 0 mm 417 W/m2
10:55 -6.5 °C -8.8 °C 34496.6 hPa Calm   18.2 km/h 77 % 0 mm 763 W/m2
11:00 -6.2 °C -8.9 °C 34496.6 hPa WNW 12.9 km/h 23.3 km/h 74 % 0 mm 606 W/m2
11:05 -6.7 °C -9 °C 34496.6 hPa NW 10.3 km/h 23.3 km/h 77 % 0 mm 745 W/m2
11:10 -6.3 °C -8.9 °C 34496.6 hPa WNW 18.2 km/h 23.3 km/h 74 % 0 mm 844 W/m2
11:15 -6.4 °C -8.7 °C 34486.4 hPa WNW 12.9 km/h 23.3 km/h 77 % 0 mm 403 W/m2
11:20 -6.4 °C -8.8 °C 34486.4 hPa WSW 20.8 km/h 25.9 km/h 77 % 0 mm 338 W/m2
11:25 -6.7 °C -9.1 °C 34496.6 hPa West 12.9 km/h 28.5 km/h 77 % 0 mm 243 W/m2
11:30 -7.1 °C -9 °C 34496.6 hPa West 12.9 km/h 28.5 km/h 80 % 0 mm 216 W/m2
11:40 -7 °C -9.1 °C 34496.6 hPa West 28.5 km/h 31.1 km/h 79 % 0 mm 311 W/m2
11:45 -6.8 °C -8.9 °C 34486.4 hPa NW 23.3 km/h 31.1 km/h 79 % 0 mm 297 W/m2
11:50 -6.8 °C -8.8 °C 34496.6 hPa West 7.7 km/h 28.5 km/h 80 % 0 mm 218 W/m2
11:55 -7 °C -8.9 °C 34496.6 hPa WSW 7.7 km/h 25.9 km/h 81 % 0 mm 339 W/m2
12:00 -6.8 °C -8.9 °C 34486.4 hPa WNW 20.8 km/h 28.5 km/h 79 % 0 mm 309 W/m2
12:05 -6.8 °C -8.9 °C 34486.4 hPa West 7.7 km/h 33.6 km/h 79 % 0 mm 218 W/m2
12:10 -6.5 °C -8.4 °C 34486.4 hPa WNW 5.1 km/h 33.6 km/h 80 % 0 mm 886 W/m2
12:15 -6.2 °C -8.8 °C 34486.4 hPa WNW 10.3 km/h 38.8 km/h 75 % 0 mm 406 W/m2
12:20 -6.4 °C -8.8 °C 34486.4 hPa West 15.6 km/h 38.8 km/h 76 % 0 mm 322 W/m2
12:30 -5.9 °C -8.4 °C 34486.4 hPa West 15.6 km/h 31.1 km/h 75 % 0 mm 348 W/m2
12:35 -6.3 °C -8.8 °C 34486.4 hPa NW 12.9 km/h 28.5 km/h 76 % 0 mm 253 W/m2
12:40 -6.1 °C -8.1 °C 34486.4 hPa NW 20.8 km/h 28.5 km/h 80 % 0 mm 1055 W/m2
12:45 -6.1 °C -8.6 °C 34486.4 hPa West 20.8 km/h 31.1 km/h 75 % 0 mm 283 W/m2
12:50 -6.2 °C -8.7 °C 34486.4 hPa WNW 20.8 km/h 33.6 km/h 76 % 0 mm 345 W/m2
12:55 -6.3 °C -8.5 °C 34486.4 hPa WNW 12.9 km/h 33.6 km/h 78 % 0 mm 332 W/m2
13:00 -6.4 °C -8.5 °C 34486.4 hPa West 20.8 km/h 33.6 km/h 79 % 0 mm 367 W/m2
13:05 -6.2 °C -8.4 °C 34486.4 hPa WSW 18.2 km/h 36.2 km/h 78 % 0 mm 332 W/m2
13:10 -6.2 °C -8.4 °C 34486.4 hPa WSW 12.9 km/h 36.2 km/h 77 % 0 mm 1095 W/m2
13:15 -6.1 °C -8.6 °C 34486.4 hPa WNW 12.9 km/h 44.1 km/h 75 % 0 mm 318 W/m2
13:20 -6.2 °C -8.4 °C 34486.4 hPa WSW 15.6 km/h 44.1 km/h 78 % 0 mm 336 W/m2
13:25 -6.3 °C -8.4 °C 34486.4 hPa West 5.1 km/h 28.5 km/h 79 % 0 mm 316 W/m2
13:30 -6.4 °C -8.6 °C 34486.4 hPa West 7.7 km/h 31.1 km/h 79 % 0 mm 369 W/m2
13:35 -6.3 °C -8.2 °C 34486.4 hPa WSW 18.2 km/h 31.1 km/h 81 % 0 mm 397 W/m2
13:40 -6.2 °C -8.3 °C 34476.3 hPa WSW 12.9 km/h 33.6 km/h 79 % 0 mm 373 W/m2
13:45 -5.7 °C -8.1 °C 34476.3 hPa WNW 7.7 km/h 33.6 km/h 77 % 0 mm 373 W/m2
13:50 -5.7 °C -8.1 °C 34486.4 hPa WNW 7.7 km/h 41.4 km/h 76 % 0 mm 1013 W/m2
13:55 -5.9 °C -8.3 °C 34486.4 hPa West 31.1 km/h 41.4 km/h 77 % 0 mm 381 W/m2
14:00 -6 °C -8.1 °C 34476.3 hPa WNW 23.3 km/h 33.6 km/h 79 % 0 mm 241 W/m2
14:05 -6.1 °C -8.3 °C 34476.3 hPa WSW 25.9 km/h 36.2 km/h 78 % 0 mm 362 W/m2
14:10 -5.9 °C -8.3 °C 34476.3 hPa SW 15.6 km/h 38.8 km/h 77 % 0 mm 972 W/m2
14:15 -5.9 °C -8.2 °C 34476.3 hPa West 18.2 km/h 41.4 km/h 77 % 0 mm 981 W/m2
14:20 -6.1 °C -8.3 °C 34476.3 hPa West 25.9 km/h 41.4 km/h 78 % 0 mm 828 W/m2
14:25 -5.9 °C -8.1 °C 34476.3 hPa WNW 25.9 km/h 41.4 km/h 79 % 0 mm 949 W/m2
14:30 -6.2 °C -8.3 °C 34476.3 hPa WNW 18.2 km/h 38.8 km/h 78 % 0 mm 923 W/m2
14:35 -5.9 °C -8.1 °C 34476.3 hPa WNW 7.7 km/h 38.8 km/h 78 % 0 mm 990 W/m2
14:40 -6.2 °C -8.3 °C 34476.3 hPa West 36.2 km/h 38.8 km/h 79 % 0 mm 963 W/m2
14:45 -5.7 °C -7.9 °C 34462.7 hPa WNW 23.3 km/h 36.2 km/h 78 % 0 mm 1053 W/m2
14:50 -5.5 °C -8.1 °C 34462.7 hPa WNW 38.8 km/h 38.8 km/h 75 % 0 mm 1058 W/m2
14:55 -6.3 °C -8.7 °C 34462.7 hPa WNW 10.3 km/h 41.4 km/h 77 % 0 mm 211 W/m2
15:00 -6.6 °C -8.4 °C 34462.7 hPa WNW 15.6 km/h 41.4 km/h 82 % 0 mm 914 W/m2
15:05 -6 °C -8 °C 34462.7 hPa WSW 28.5 km/h 33.6 km/h 80 % 0 mm 914 W/m2
15:10 -5.9 °C -8.3 °C 34462.7 hPa West 10.3 km/h 36.2 km/h 77 % 0 mm 561 W/m2
15:15 -6.1 °C -8.2 °C 34462.7 hPa West 15.6 km/h 36.2 km/h 79 % 0 mm 536 W/m2
15:20 -5.8 °C -8.5 °C 34462.7 hPa West 41.4 km/h 41.4 km/h 74 % 0 mm 536 W/m2
15:25 -6.1 °C -8.3 °C 34462.7 hPa NW 12.9 km/h 41.4 km/h 78 % 0 mm 969 W/m2
15:30 -5.9 °C -8.5 °C 34462.7 hPa WNW 33.6 km/h 41.4 km/h 75 % 0 mm 905 W/m2
15:35 -6.1 °C -8.5 °C 34462.7 hPa West 28.5 km/h 46.7 km/h 76 % 0 mm 766 W/m2
15:40 -5.9 °C -8.6 °C 34462.7 hPa West 7.7 km/h 46.7 km/h 74 % 0 mm 828 W/m2
15:45 -5.9 °C -8.6 °C 34462.7 hPa West 7.7 km/h 41.4 km/h 74 % 0 mm 803 W/m2
15:50 -5.6 °C -8.2 °C 34452.6 hPa WNW 20.8 km/h 41.4 km/h 75 % 0 mm 833 W/m2
15:55 -5.2 °C -7.9 °C 34452.6 hPa WSW 18.2 km/h 38.8 km/h 74 % 0 mm 766 W/m2
16:00 -5.8 °C -8.3 °C 34452.6 hPa West 33.6 km/h 44.1 km/h 75 % 0 mm 821 W/m2
16:05 -5.9 °C -8.2 °C 34452.6 hPa West 33.6 km/h 46.7 km/h 77 % 0 mm 782 W/m2
16:10 -5.6 °C -8.1 °C 34452.6 hPa WNW 23.3 km/h 46.7 km/h 76 % 0 mm 772 W/m2
16:15 -5.6 °C -8.1 °C 34462.7 hPa West 31.1 km/h 36.2 km/h 75 % 0 mm 744 W/m2
16:20 -5.6 °C -8 °C 34452.6 hPa NW 5.1 km/h 49.2 km/h 76 % 0 mm 744 W/m2
16:25 -5.8 °C -8.3 °C 34452.6 hPa WSW 33.6 km/h 49.2 km/h 76 % 0 mm 729 W/m2
16:30 -5.9 °C -8.2 °C 34452.6 hPa West 5.1 km/h 49.2 km/h 77 % 0 mm 691 W/m2
16:35 -5.9 °C -8.5 °C 34452.6 hPa West 15.6 km/h 49.2 km/h 75 % 0 mm 717 W/m2
16:40 -5.9 °C -8.2 °C 34452.6 hPa WSW 20.8 km/h 46.7 km/h 77 % 0 mm 705 W/m2
16:45 -5.8 °C -8.1 °C 34452.6 hPa West 25.9 km/h 44.1 km/h 77 % 0 mm 694 W/m2
16:50 -5.9 °C -8.3 °C 34452.6 hPa NW 20.8 km/h 44.1 km/h 77 % 0 mm 687 W/m2
16:55 -5.8 °C -8.2 °C 34452.6 hPa NW 23.3 km/h 38.8 km/h 76 % 0 mm 671 W/m2
17:00 -5.7 °C -8.1 °C 34452.6 hPa WNW 10.3 km/h 38.8 km/h 76 % 0 mm 664 W/m2
17:05 -5.8 °C -8.3 °C 34442.4 hPa West 7.7 km/h 36.2 km/h 76 % 0 mm 642 W/m2
17:10 -5.8 °C -8.2 °C 34442.4 hPa West 20.8 km/h 41.4 km/h 76 % 0 mm 629 W/m2
17:15 -5.9 °C -8.3 °C 34442.4 hPa WNW 10.3 km/h 41.4 km/h 77 % 0 mm 631 W/m2
17:20 -5.9 °C -8.2 °C 34442.4 hPa WSW 36.2 km/h 46.7 km/h 78 % 0 mm 621 W/m2
17:25 -6.1 °C -8.4 °C 34442.4 hPa SW 7.7 km/h 46.7 km/h 77 % 0 mm 613 W/m2
17:30 -6.1 °C -8.3 °C 34442.4 hPa WNW 18.2 km/h 44.1 km/h 78 % 0 mm 592 W/m2
17:35 -6.2 °C -8.5 °C 34442.4 hPa NW 20.8 km/h 44.1 km/h 77 % 0 mm 596 W/m2
17:40 -6.2 °C -8.4 °C 34442.4 hPa WNW 23.3 km/h 44.1 km/h 78 % 0 mm 575 W/m2
17:45 -6.2 °C -8.4 °C 34442.4 hPa WSW 28.5 km/h 44.1 km/h 78 % 0 mm 534 W/m2
17:50 -6.3 °C -8.4 °C 34442.4 hPa WSW 15.6 km/h 36.2 km/h 79 % 0 mm 550 W/m2
17:55 -6 °C -8.3 °C 34442.4 hPa West 15.6 km/h 41.4 km/h 77 % 0 mm 540 W/m2
18:00 -6.2 °C -8.4 °C 34442.4 hPa WNW 20.8 km/h 46.7 km/h 78 % 0 mm 499 W/m2
18:05 -5.9 °C -8.1 °C 34442.4 hPa WNW 10.3 km/h 46.7 km/h 78 % 0 mm 504 W/m2
18:10 -6.1 °C -8.4 °C 34442.4 hPa West 28.5 km/h 38.8 km/h 77 % 0 mm 401 W/m2
18:15 -6.2 °C -8.2 °C 34428.8 hPa NW 12.9 km/h 41.4 km/h 80 % 0 mm 485 W/m2
18:20 -6.3 °C -8.5 °C 34428.8 hPa West 23.3 km/h 44.1 km/h 78 % 0 mm 459 W/m2
18:25 -6.4 °C -8.6 °C 34442.4 hPa NW 10.3 km/h 44.1 km/h 79 % 0 mm 352 W/m2
18:30 -6.5 °C -8.4 °C 34442.4 hPa WNW 23.3 km/h 41.4 km/h 80 % 0 mm 267 W/m2
18:35 -6.6 °C -8.6 °C 34442.4 hPa West 33.6 km/h 38.8 km/h 80 % 0 mm 406 W/m2
18:40 -6.6 °C -8.6 °C 34428.8 hPa West 12.9 km/h 41.4 km/h 80 % 0 mm 434 W/m2
18:45 -6.4 °C -8.5 °C 34442.4 hPa WSW 7.7 km/h 41.4 km/h 79 % 0 mm 406 W/m2
18:50 -6.3 °C -8.3 °C 34442.4 hPa NW 12.9 km/h 41.4 km/h 80 % 0 mm 267 W/m2
18:55 -6.6 °C -8.6 °C 34442.4 hPa West 25.9 km/h 36.2 km/h 80 % 0 mm 394 W/m2
19:00 -6.5 °C -8.5 °C 34428.8 hPa West 12.9 km/h 36.2 km/h 80 % 0 mm 383 W/m2
19:05 -6.6 °C -8.6 °C 34428.8 hPa West 15.6 km/h 33.6 km/h 80 % 0 mm 360 W/m2
19:10 -6.6 °C -8.6 °C 34428.8 hPa WNW 15.6 km/h 36.2 km/h 80 % 0 mm 350 W/m2
19:15 -6.6 °C -8.6 °C 34428.8 hPa WNW 10.3 km/h 36.2 km/h 79 % 0 mm 338 W/m2
19:20 -6.8 °C -8.7 °C 34428.8 hPa WNW 25.9 km/h 38.8 km/h 80 % 0 mm 241 W/m2
19:25 -6.9 °C -8.8 °C 34442.4 hPa WNW 15.6 km/h 38.8 km/h 81 % 0 mm 236 W/m2
19:30 -7 °C -8.7 °C 34442.4 hPa WNW 23.3 km/h 36.2 km/h 82 % 0 mm 279 W/m2
19:35 -7.1 °C -8.7 °C 34428.8 hPa NW 18.2 km/h 36.2 km/h 83 % 0 mm 285 W/m2
19:40 -7.1 °C -8.7 °C 34428.8 hPa NW 5.1 km/h 36.2 km/h 83 % 0 mm 265 W/m2
19:50 -7.1 °C -8.6 °C 34428.8 hPa NW 12.9 km/h 44.1 km/h 84 % 0 mm 213 W/m2
19:55 -7.1 °C -8.6 °C 34428.8 hPa West 28.5 km/h 44.1 km/h 84 % 0 mm 188 W/m2
20:00 -7.2 °C -8.8 °C 34428.8 hPa NW 10.3 km/h 38.8 km/h 83 % 0 mm 113 W/m2
20:05 -7.3 °C -8.8 °C 34428.8 hPa West 12.9 km/h 38.8 km/h 84 % 0 mm 139 W/m2
20:10 -7.3 °C -8.9 °C 34428.8 hPa West 23.3 km/h 38.8 km/h 84 % 0 mm 155 W/m2
20:15 -7.3 °C -8.7 °C 34418.7 hPa WNW 12.9 km/h 33.6 km/h 85 % 0 mm 127 W/m2
20:20 -7.3 °C -8.7 °C 34418.7 hPa WNW 15.6 km/h 31.1 km/h 85 % 0 mm 114 W/m2
20:25 -7.3 °C -8.8 °C 34418.7 hPa WNW 12.9 km/h 31.1 km/h 85 % 0 mm 95 W/m2
20:30 -7.4 °C -8.8 °C 34418.7 hPa NW 5.1 km/h 31.1 km/h 85 % 0 mm 77 W/m2
20:35 -7.4 °C -8.8 °C 34418.7 hPa West 20.8 km/h 31.1 km/h 86 % 0 mm 47 W/m2
20:40 -7.6 °C -8.9 °C 34418.7 hPa WSW 7.7 km/h 31.1 km/h 86 % 0 mm 42 W/m2
20:45 -7.6 °C -8.8 °C 34418.7 hPa West 18.2 km/h 31.1 km/h 87 % 0 mm 32 W/m2
20:50 -7.7 °C -8.9 °C 34418.7 hPa WNW 15.6 km/h 28.5 km/h 87 % 0 mm 28 W/m2
20:55 -7.7 °C -8.9 °C 34418.7 hPa WNW 12.9 km/h 25.9 km/h 87 % 0 mm 28 W/m2
21:00 -7.8 °C -9 °C 34405.1 hPa WNW 18.2 km/h 25.9 km/h 87 % 0 mm 32 W/m2
21:05 -7.8 °C -8.9 °C 34418.7 hPa WNW 10.3 km/h 25.9 km/h 88 % 0 mm 26 W/m2
21:10 -7.8 °C -8.9 °C 34418.7 hPa WNW 7.7 km/h 23.3 km/h 88 % 0 mm 23 W/m2
21:15 -7.9 °C -9 °C 34418.7 hPa WNW 18.2 km/h 25.9 km/h 88 % 0 mm 19 W/m2
21:20 -7.9 °C -9 °C 34418.7 hPa WNW 12.9 km/h 28.5 km/h 88 % 0 mm 14 W/m2
21:25 -7.9 °C -9.1 °C 34418.7 hPa NW 18.2 km/h 28.5 km/h 88 % 0 mm 11 W/m2
21:30 -8 °C -9.2 °C 34418.7 hPa NW 10.3 km/h 33.6 km/h 87 % 0 mm 9 W/m2
21:35 -8.1 °C -9.3 °C 34418.7 hPa West 5.1 km/h 33.6 km/h 87 % 0 mm 7 W/m2
21:40 -8.1 °C -9.3 °C 34418.7 hPa WNW 10.3 km/h 25.9 km/h 87 % 0 mm 7 W/m2
21:45 -8.2 °C -9.3 °C 34418.7 hPa Calm   25.9 km/h 88 % 0 mm 0 W/m2
21:50 -8.2 °C -9.3 °C 34418.7 hPa NNW 5.1 km/h 25.9 km/h 88 % 0 mm 0 W/m2
21:55 -8.2 °C -9.3 °C 34418.7 hPa West 5.1 km/h 28.5 km/h 88 % 0 mm 0 W/m2
22:00 -8.2 °C -9.2 °C 34418.7 hPa WNW 5.1 km/h 28.5 km/h 89 % 0 mm 0 W/m2
22:05 -8.2 °C -9.2 °C 34418.7 hPa WNW 10.3 km/h 23.3 km/h 89 % 0 mm 0 W/m2
22:10 -8.2 °C -9.2 °C 34418.7 hPa NW 20.8 km/h 23.3 km/h 89 % 0 mm 0 W/m2
22:15 -8.2 °C -9.2 °C 34418.7 hPa WNW 23.3 km/h 25.9 km/h 89 % 0 mm 0 W/m2
22:20 -8.2 °C -9.1 °C 34418.7 hPa WNW 10.3 km/h 25.9 km/h 90 % 0 mm 0 W/m2
22:25 -8.3 °C -9.2 °C 34418.7 hPa WNW 15.6 km/h 23.3 km/h 90 % 0 mm 0 W/m2
22:30 -8.3 °C -9.1 °C 34418.7 hPa West 5.1 km/h 23.3 km/h 91 % 0 mm 0 W/m2
22:35 -8.3 °C -9.1 °C 34418.7 hPa West 10.3 km/h 25.9 km/h 91 % 0 mm 0 W/m2
22:40 -8.3 °C -9.2 °C 34418.7 hPa WNW 7.7 km/h 25.9 km/h 90 % 0 mm 0 W/m2
22:45 -8.3 °C -9.1 °C 34418.7 hPa NW 20.8 km/h 23.3 km/h 91 % 0 mm 0 W/m2
22:50 -8.3 °C -9.3 °C 34418.7 hPa WNW 10.3 km/h 23.3 km/h 90 % 0 mm 0 W/m2
22:55 -8.3 °C -9.3 °C 34428.8 hPa WNW 10.3 km/h 25.9 km/h 90 % 0 mm 0 W/m2
23:00 -8.3 °C -9.3 °C 34428.8 hPa NW 15.6 km/h 25.9 km/h 90 % 0 mm 0 W/m2
23:05 -8.3 °C -9.2 °C 34418.7 hPa West 10.3 km/h 23.3 km/h 91 % 0 mm 0 W/m2
23:15 -8.3 °C -9.1 °C 34418.7 hPa WNW 15.6 km/h 25.9 km/h 91 % 0 mm 0 W/m2
23:20 -8.3 °C -9.1 °C 34418.7 hPa West 7.7 km/h 25.9 km/h 91 % 0 mm 0 W/m2
23:25 -8.3 °C -9.1 °C 34418.7 hPa WNW 2.6 km/h 25.9 km/h 91 % 0 mm 0 W/m2
23:30 -8.2 °C -9.1 °C 34418.7 hPa West 7.7 km/h 25.9 km/h 91 % 0 mm 0 W/m2
23:35 -8.2 °C -9.1 °C 34418.7 hPa NW 7.7 km/h 28.5 km/h 91 % 0 mm 0 W/m2
23:40 -8.2 °C -9 °C 34418.7 hPa NW 15.6 km/h 31.1 km/h 91 % 0 mm 0 W/m2
23:45 -8.1 °C -9.1 °C 34418.7 hPa WNW 7.7 km/h 31.1 km/h 90 % 0 mm 0 W/m2
23:50 -8.2 °C -9.1 °C 34418.7 hPa West 15.6 km/h 31.1 km/h 90 % 0 mm 0 W/m2
23:55 -8.2 °C -9.1 °C 34418.7 hPa WNW 12.9 km/h 31.1 km/h 90 % 0 mm 0 W/m2
Avec l'autorisation de Weather Underground - 1.75 mb